sensor_id;sensor_type;location;lat;lon;timestamp;temperature;humidity
23609;DHT22;11982;50.810;4.442;2023-04-23T00:00:07;8.60;99.90
23609;DHT22;11982;50.810;4.442;2023-04-23T00:02:36;8.60;99.90
23609;DHT22;11982;50.810;4.442;2023-04-23T00:05:04;8.60;99.90
23609;DHT22;11982;50.810;4.442;2023-04-23T00:07:32;8.70;99.90
23609;DHT22;11982;50.810;4.442;2023-04-23T00:09:59;8.80;99.90
23609;DHT22;11982;50.810;4.442;2023-04-23T00:12:26;8.90;99.90
23609;DHT22;11982;50.810;4.442;2023-04-23T00:14:52;8.90;99.90
23609;DHT22;11982;50.810;4.442;2023-04-23T00:17:17;9.00;99.90
23609;DHT22;11982;50.810;4.442;2023-04-23T00:19:44;9.00;99.90
23609;DHT22;11982;50.810;4.442;2023-04-23T00:22:12;9.00;99.90
23609;DHT22;11982;50.810;4.442;2023-04-23T00:24:38;9.10;99.90
23609;DHT22;11982;50.810;4.442;2023-04-23T00:27:05;9.20;99.90
23609;DHT22;11982;50.810;4.442;2023-04-23T00:29:31;9.20;99.90
23609;DHT22;11982;50.810;4.442;2023-04-23T00:31:57;9.30;99.90
23609;DHT22;11982;50.810;4.442;2023-04-23T00:34:22;9.30;99.90
23609;DHT22;11982;50.810;4.442;2023-04-23T00:36:48;9.30;99.90
23609;DHT22;11982;50.810;4.442;2023-04-23T00:39:14;9.40;99.90
23609;DHT22;11982;50.810;4.442;2023-04-23T00:41:40;9.50;99.90
23609;DHT22;11982;50.810;4.442;2023-04-23T00:44:07;9.60;99.90
23609;DHT22;11982;50.810;4.442;2023-04-23T00:46:37;9.60;99.90
23609;DHT22;11982;50.810;4.442;2023-04-23T00:49:03;9.70;99.90
23609;DHT22;11982;50.810;4.442;2023-04-23T00:51:29;9.70;99.90
23609;DHT22;11982;50.810;4.442;2023-04-23T00:53:56;9.70;99.90
23609;DHT22;11982;50.810;4.442;2023-04-23T00:56:23;9.70;99.90
23609;DHT22;11982;50.810;4.442;2023-04-23T00:58:50;9.80;99.90
23609;DHT22;11982;50.810;4.442;2023-04-23T01:01:16;9.90;99.90
23609;DHT22;11982;50.810;4.442;2023-04-23T01:03:48;9.90;99.90
23609;DHT22;11982;50.810;4.442;2023-04-23T01:06:16;9.90;99.90
23609;DHT22;11982;50.810;4.442;2023-04-23T01:08:42;9.90;99.90
23609;DHT22;11982;50.810;4.442;2023-04-23T01:11:12;9.80;99.90
23609;DHT22;11982;50.810;4.442;2023-04-23T01:13:39;9.80;99.90
23609;DHT22;11982;50.810;4.442;2023-04-23T01:16:06;9.80;99.90
23609;DHT22;11982;50.810;4.442;2023-04-23T01:18:32;9.90;99.90
23609;DHT22;11982;50.810;4.442;2023-04-23T01:20:59;9.80;99.90
23609;DHT22;11982;50.810;4.442;2023-04-23T01:23:24;9.80;99.90
23609;DHT22;11982;50.810;4.442;2023-04-23T01:25:52;9.90;99.90
23609;DHT22;11982;50.810;4.442;2023-04-23T01:28:18;9.90;99.90
23609;DHT22;11982;50.810;4.442;2023-04-23T01:30:44;10.00;99.90
23609;DHT22;11982;50.810;4.442;2023-04-23T01:33:11;10.10;99.90
23609;DHT22;11982;50.810;4.442;2023-04-23T01:35:37;10.20;99.90
23609;DHT22;11982;50.810;4.442;2023-04-23T01:38:04;10.20;99.90
23609;DHT22;11982;50.810;4.442;2023-04-23T01:40:31;10.20;99.90
23609;DHT22;11982;50.810;4.442;2023-04-23T01:42:57;10.20;99.90
23609;DHT22;11982;50.810;4.442;2023-04-23T01:45:23;10.30;99.90
23609;DHT22;11982;50.810;4.442;2023-04-23T01:47:49;10.30;99.90
23609;DHT22;11982;50.810;4.442;2023-04-23T01:50:15;10.40;99.90
23609;DHT22;11982;50.810;4.442;2023-04-23T01:52:41;10.40;99.90
23609;DHT22;11982;50.810;4.442;2023-04-23T01:55:07;10.40;99.90
23609;DHT22;11982;50.810;4.442;2023-04-23T01:57:34;10.40;99.90
23609;DHT22;11982;50.810;4.442;2023-04-23T02:02:38;10.50;99.90
23609;DHT22;11982;50.810;4.442;2023-04-23T02:05:11;10.60;99.90
23609;DHT22;11982;50.810;4.442;2023-04-23T02:07:38;10.50;99.90
23609;DHT22;11982;50.810;4.442;2023-04-23T02:10:04;10.50;99.90
23609;DHT22;11982;50.810;4.442;2023-04-23T02:12:30;10.50;99.90
23609;DHT22;11982;50.810;4.442;2023-04-23T02:14:56;10.40;99.90
23609;DHT22;11982;50.810;4.442;2023-04-23T02:17:22;10.50;99.90
23609;DHT22;11982;50.810;4.442;2023-04-23T02:19:48;10.30;99.90
23609;DHT22;11982;50.810;4.442;2023-04-23T02:22:15;10.40;99.90
23609;DHT22;11982;50.810;4.442;2023-04-23T02:24:40;10.40;99.90
23609;DHT22;11982;50.810;4.442;2023-04-23T02:27:07;10.40;99.90
23609;DHT22;11982;50.810;4.442;2023-04-23T02:29:33;10.40;99.90
23609;DHT22;11982;50.810;4.442;2023-04-23T02:31:59;10.20;99.90
23609;DHT22;11982;50.810;4.442;2023-04-23T02:34:25;10.20;99.90
23609;DHT22;11982;50.810;4.442;2023-04-23T02:36:50;10.20;99.90
23609;DHT22;11982;50.810;4.442;2023-04-23T02:39:17;10.10;99.90
23609;DHT22;11982;50.810;4.442;2023-04-23T02:41:43;10.10;99.90
23609;DHT22;11982;50.810;4.442;2023-04-23T02:44:08;10.00;99.90
23609;DHT22;11982;50.810;4.442;2023-04-23T02:46:34;9.90;99.90
23609;DHT22;11982;50.810;4.442;2023-04-23T02:49:02;9.70;99.90
23609;DHT22;11982;50.810;4.442;2023-04-23T02:51:28;9.60;99.90
23609;DHT22;11982;50.810;4.442;2023-04-23T02:53:54;9.60;99.90
23609;DHT22;11982;50.810;4.442;2023-04-23T02:56:19;9.50;99.90
23609;DHT22;11982;50.810;4.442;2023-04-23T02:58:45;9.50;99.90
23609;DHT22;11982;50.810;4.442;2023-04-23T03:01:11;9.40;99.90
23609;DHT22;11982;50.810;4.442;2023-04-23T03:03:37;9.40;99.90
23609;DHT22;11982;50.810;4.442;2023-04-23T03:06:03;9.30;99.90
23609;DHT22;11982;50.810;4.442;2023-04-23T03:08:29;9.30;99.90
23609;DHT22;11982;50.810;4.442;2023-04-23T03:10:55;9.20;99.90
23609;DHT22;11982;50.810;4.442;2023-04-23T03:13:21;9.10;99.90
23609;DHT22;11982;50.810;4.442;2023-04-23T03:15:47;9.10;99.90
23609;DHT22;11982;50.810;4.442;2023-04-23T03:18:12;8.90;99.90
23609;DHT22;11982;50.810;4.442;2023-04-23T03:20:38;8.90;99.90
23609;DHT22;11982;50.810;4.442;2023-04-23T03:23:03;8.80;99.90
23609;DHT22;11982;50.810;4.442;2023-04-23T03:25:33;8.80;99.90
23609;DHT22;11982;50.810;4.442;2023-04-23T03:27:59;8.70;99.90
23609;DHT22;11982;50.810;4.442;2023-04-23T03:30:27;8.70;99.90
23609;DHT22;11982;50.810;4.442;2023-04-23T03:32:55;8.60;99.90
23609;DHT22;11982;50.810;4.442;2023-04-23T03:35:24;8.60;99.90
23609;DHT22;11982;50.810;4.442;2023-04-23T03:37:50;8.70;99.90
23609;DHT22;11982;50.810;4.442;2023-04-23T03:40:16;8.70;99.90
23609;DHT22;11982;50.810;4.442;2023-04-23T03:42:42;8.60;99.90
23609;DHT22;11982;50.810;4.442;2023-04-23T03:45:08;8.70;99.90
23609;DHT22;11982;50.810;4.442;2023-04-23T03:47:34;8.60;99.90
23609;DHT22;11982;50.810;4.442;2023-04-23T03:50:01;8.60;99.90
23609;DHT22;11982;50.810;4.442;2023-04-23T03:52:26;8.50;99.90
23609;DHT22;11982;50.810;4.442;2023-04-23T03:54:52;8.40;99.90
23609;DHT22;11982;50.810;4.442;2023-04-23T03:57:19;8.40;99.90
23609;DHT22;11982;50.810;4.442;2023-04-23T03:59:45;8.50;99.90
23609;DHT22;11982;50.810;4.442;2023-04-23T04:02:10;8.60;99.90
23609;DHT22;11982;50.810;4.442;2023-04-23T04:04:36;8.40;99.90
23609;DHT22;11982;50.810;4.442;2023-04-23T04:07:02;8.40;99.90
23609;DHT22;11982;50.810;4.442;2023-04-23T04:09:28;8.30;99.90
23609;DHT22;11982;50.810;4.442;2023-04-23T04:11:54;8.30;99.90
23609;DHT22;11982;50.810;4.442;2023-04-23T04:14:21;8.20;99.90
23609;DHT22;11982;50.810;4.442;2023-04-23T04:16:47;8.10;99.90
23609;DHT22;11982;50.810;4.442;2023-04-23T04:19:13;8.10;99.90
23609;DHT22;11982;50.810;4.442;2023-04-23T04:21:38;8.00;99.90
23609;DHT22;11982;50.810;4.442;2023-04-23T04:24:04;8.00;99.90
23609;DHT22;11982;50.810;4.442;2023-04-23T04:26:30;8.00;99.90
23609;DHT22;11982;50.810;4.442;2023-04-23T04:28:57;8.00;99.90
23609;DHT22;11982;50.810;4.442;2023-04-23T04:31:24;8.10;99.90
23609;DHT22;11982;50.810;4.442;2023-04-23T04:33:53;8.20;99.90
23609;DHT22;11982;50.810;4.442;2023-04-23T04:36:20;8.20;99.90
23609;DHT22;11982;50.810;4.442;2023-04-23T04:38:45;8.30;99.90
23609;DHT22;11982;50.810;4.442;2023-04-23T04:41:11;8.30;99.90
23609;DHT22;11982;50.810;4.442;2023-04-23T04:43:38;8.30;99.90
23609;DHT22;11982;50.810;4.442;2023-04-23T04:46:04;8.30;99.90
23609;DHT22;11982;50.810;4.442;2023-04-23T04:48:30;8.30;99.90
23609;DHT22;11982;50.810;4.442;2023-04-23T04:50:55;8.20;99.90
23609;DHT22;11982;50.810;4.442;2023-04-23T04:53:22;8.30;99.90
23609;DHT22;11982;50.810;4.442;2023-04-23T04:55:48;8.40;99.90
23609;DHT22;11982;50.810;4.442;2023-04-23T04:58:13;8.50;99.90
23609;DHT22;11982;50.810;4.442;2023-04-23T05:00:39;8.50;99.90
23609;DHT22;11982;50.810;4.442;2023-04-23T05:03:05;8.60;99.90
23609;DHT22;11982;50.810;4.442;2023-04-23T05:05:32;8.50;99.90
23609;DHT22;11982;50.810;4.442;2023-04-23T05:07:58;8.60;99.90
23609;DHT22;11982;50.810;4.442;2023-04-23T05:10:26;8.80;99.90
23609;DHT22;11982;50.810;4.442;2023-04-23T05:12:52;8.70;99.90
23609;DHT22;11982;50.810;4.442;2023-04-23T05:15:18;8.70;99.90
23609;DHT22;11982;50.810;4.442;2023-04-23T05:17:44;8.60;99.90
23609;DHT22;11982;50.810;4.442;2023-04-23T05:20:10;8.60;99.90
23609;DHT22;11982;50.810;4.442;2023-04-23T05:22:40;8.80;99.90
23609;DHT22;11982;50.810;4.442;2023-04-23T05:25:07;8.90;99.90
23609;DHT22;11982;50.810;4.442;2023-04-23T05:27:33;8.80;99.90
23609;DHT22;11982;50.810;4.442;2023-04-23T05:30:04;8.80;99.90
23609;DHT22;11982;50.810;4.442;2023-04-23T05:32:31;8.80;99.90
23609;DHT22;11982;50.810;4.442;2023-04-23T05:34:57;9.00;99.90
23609;DHT22;11982;50.810;4.442;2023-04-23T05:37:24;9.00;99.90
23609;DHT22;11982;50.810;4.442;2023-04-23T05:39:50;9.00;99.90
23609;DHT22;11982;50.810;4.442;2023-04-23T05:42:16;9.10;99.90
23609;DHT22;11982;50.810;4.442;2023-04-23T05:44:42;9.10;99.90
23609;DHT22;11982;50.810;4.442;2023-04-23T05:47:08;9.10;99.90
23609;DHT22;11982;50.810;4.442;2023-04-23T05:49:34;9.10;99.90
23609;DHT22;11982;50.810;4.442;2023-04-23T05:52:01;9.30;99.90
23609;DHT22;11982;50.810;4.442;2023-04-23T05:54:29;9.40;99.90
23609;DHT22;11982;50.810;4.442;2023-04-23T05:56:55;9.40;99.90
23609;DHT22;11982;50.810;4.442;2023-04-23T05:59:21;9.60;99.90
23609;DHT22;11982;50.810;4.442;2023-04-23T06:01:47;9.60;99.90
23609;DHT22;11982;50.810;4.442;2023-04-23T06:04:13;9.70;99.90
23609;DHT22;11982;50.810;4.442;2023-04-23T06:06:39;9.70;99.90
23609;DHT22;11982;50.810;4.442;2023-04-23T06:09:05;9.80;99.90
23609;DHT22;11982;50.810;4.442;2023-04-23T06:11:31;9.90;99.90
23609;DHT22;11982;50.810;4.442;2023-04-23T06:13:58;9.90;99.90
23609;DHT22;11982;50.810;4.442;2023-04-23T06:16:24;10.10;99.90
23609;DHT22;11982;50.810;4.442;2023-04-23T06:18:50;10.20;99.90
23609;DHT22;11982;50.810;4.442;2023-04-23T06:21:16;10.30;99.90
23609;DHT22;11982;50.810;4.442;2023-04-23T06:23:41;10.40;99.90
23609;DHT22;11982;50.810;4.442;2023-04-23T06:26:07;10.40;99.90
23609;DHT22;11982;50.810;4.442;2023-04-23T06:28:33;10.60;99.90
23609;DHT22;11982;50.810;4.442;2023-04-23T06:30:58;10.70;99.90
23609;DHT22;11982;50.810;4.442;2023-04-23T06:33:24;10.70;99.90
23609;DHT22;11982;50.810;4.442;2023-04-23T06:35:50;10.80;99.90
23609;DHT22;11982;50.810;4.442;2023-04-23T06:38:16;10.90;99.90
23609;DHT22;11982;50.810;4.442;2023-04-23T06:40:43;11.00;99.90
23609;DHT22;11982;50.810;4.442;2023-04-23T06:43:09;11.10;99.90
23609;DHT22;11982;50.810;4.442;2023-04-23T06:45:35;11.20;99.90
23609;DHT22;11982;50.810;4.442;2023-04-23T06:48:01;11.20;99.90
23609;DHT22;11982;50.810;4.442;2023-04-23T06:50:26;11.30;99.90
23609;DHT22;11982;50.810;4.442;2023-04-23T06:52:52;11.30;99.90
23609;DHT22;11982;50.810;4.442;2023-04-23T06:55:18;11.50;99.90
23609;DHT22;11982;50.810;4.442;2023-04-23T06:57:45;11.50;99.90
23609;DHT22;11982;50.810;4.442;2023-04-23T07:00:11;11.50;99.90
23609;DHT22;11982;50.810;4.442;2023-04-23T07:02:37;11.50;99.90
23609;DHT22;11982;50.810;4.442;2023-04-23T07:05:03;11.60;99.90
23609;DHT22;11982;50.810;4.442;2023-04-23T07:07:29;11.70;99.90
23609;DHT22;11982;50.810;4.442;2023-04-23T07:09:55;11.80;99.90
23609;DHT22;11982;50.810;4.442;2023-04-23T07:12:21;11.90;99.90
23609;DHT22;11982;50.810;4.442;2023-04-23T07:14:47;12.00;99.90
23609;DHT22;11982;50.810;4.442;2023-04-23T07:17:12;12.00;99.90
23609;DHT22;11982;50.810;4.442;2023-04-23T07:19:38;12.00;99.90
23609;DHT22;11982;50.810;4.442;2023-04-23T07:22:04;12.10;99.90
23609;DHT22;11982;50.810;4.442;2023-04-23T07:24:30;12.20;99.90
23609;DHT22;11982;50.810;4.442;2023-04-23T07:26:55;12.30;99.90
23609;DHT22;11982;50.810;4.442;2023-04-23T07:29:21;12.30;99.90
23609;DHT22;11982;50.810;4.442;2023-04-23T07:31:47;12.40;99.90
23609;DHT22;11982;50.810;4.442;2023-04-23T07:34:13;12.60;99.90
23609;DHT22;11982;50.810;4.442;2023-04-23T07:36:39;12.60;99.90
23609;DHT22;11982;50.810;4.442;2023-04-23T07:39:05;12.60;99.90
23609;DHT22;11982;50.810;4.442;2023-04-23T07:41:31;12.70;99.90
23609;DHT22;11982;50.810;4.442;2023-04-23T07:43:57;13.00;99.90
23609;DHT22;11982;50.810;4.442;2023-04-23T07:46:23;13.00;99.90
23609;DHT22;11982;50.810;4.442;2023-04-23T07:48:48;13.20;99.90
23609;DHT22;11982;50.810;4.442;2023-04-23T07:51:14;13.30;99.90
23609;DHT22;11982;50.810;4.442;2023-04-23T07:53:40;13.40;99.90
23609;DHT22;11982;50.810;4.442;2023-04-23T07:56:06;13.50;99.90
23609;DHT22;11982;50.810;4.442;2023-04-23T07:58:32;13.60;99.90
23609;DHT22;11982;50.810;4.442;2023-04-23T08:00:58;13.70;99.90
23609;DHT22;11982;50.810;4.442;2023-04-23T08:03:23;13.80;99.90
23609;DHT22;11982;50.810;4.442;2023-04-23T08:05:49;13.70;99.90
23609;DHT22;11982;50.810;4.442;2023-04-23T08:08:15;13.60;99.90
23609;DHT22;11982;50.810;4.442;2023-04-23T08:10:41;13.50;99.90
23609;DHT22;11982;50.810;4.442;2023-04-23T08:13:07;13.60;99.90
23609;DHT22;11982;50.810;4.442;2023-04-23T08:15:32;13.70;99.90
23609;DHT22;11982;50.810;4.442;2023-04-23T08:17:58;13.80;99.90
23609;DHT22;11982;50.810;4.442;2023-04-23T08:20:24;14.00;99.90
23609;DHT22;11982;50.810;4.442;2023-04-23T08:22:50;14.20;99.90
23609;DHT22;11982;50.810;4.442;2023-04-23T08:25:18;14.40;99.90
23609;DHT22;11982;50.810;4.442;2023-04-23T08:27:43;14.60;99.90
23609;DHT22;11982;50.810;4.442;2023-04-23T08:30:09;14.60;99.90
23609;DHT22;11982;50.810;4.442;2023-04-23T08:32:38;14.80;99.90
23609;DHT22;11982;50.810;4.442;2023-04-23T08:35:05;15.00;99.90
23609;DHT22;11982;50.810;4.442;2023-04-23T08:37:31;15.00;99.90
23609;DHT22;11982;50.810;4.442;2023-04-23T08:39:56;15.10;99.90
23609;DHT22;11982;50.810;4.442;2023-04-23T08:45:03;15.10;99.90
23609;DHT22;11982;50.810;4.442;2023-04-23T08:47:29;15.30;99.90
23609;DHT22;11982;50.810;4.442;2023-04-23T08:49:58;15.40;99.90
23609;DHT22;11982;50.810;4.442;2023-04-23T08:52:25;15.60;99.90
23609;DHT22;11982;50.810;4.442;2023-04-23T08:55:00;15.60;99.90
23609;DHT22;11982;50.810;4.442;2023-04-23T08:57:30;15.60;99.90
23609;DHT22;11982;50.810;4.442;2023-04-23T08:59:56;15.90;99.90
23609;DHT22;11982;50.810;4.442;2023-04-23T09:02:22;15.70;99.90
23609;DHT22;11982;50.810;4.442;2023-04-23T09:04:48;15.60;99.90
23609;DHT22;11982;50.810;4.442;2023-04-23T09:07:14;15.50;99.90
23609;DHT22;11982;50.810;4.442;2023-04-23T09:09:40;15.60;99.90
23609;DHT22;11982;50.810;4.442;2023-04-23T09:12:07;15.70;99.90
23609;DHT22;11982;50.810;4.442;2023-04-23T09:14:34;16.10;99.90
23609;DHT22;11982;50.810;4.442;2023-04-23T09:17:01;16.70;99.90
23609;DHT22;11982;50.810;4.442;2023-04-23T09:19:27;16.60;99.90
23609;DHT22;11982;50.810;4.442;2023-04-23T09:21:53;16.60;99.90
23609;DHT22;11982;50.810;4.442;2023-04-23T09:24:22;16.50;99.90
23609;DHT22;11982;50.810;4.442;2023-04-23T09:26:50;16.30;99.90
23609;DHT22;11982;50.810;4.442;2023-04-23T09:29:17;16.30;99.90
23609;DHT22;11982;50.810;4.442;2023-04-23T09:31:54;16.30;99.90
23609;DHT22;11982;50.810;4.442;2023-04-23T09:34:24;16.40;99.90
23609;DHT22;11982;50.810;4.442;2023-04-23T09:36:51;16.40;99.90
23609;DHT22;11982;50.810;4.442;2023-04-23T09:39:18;16.70;99.90
23609;DHT22;11982;50.810;4.442;2023-04-23T09:41:44;17.30;99.90
23609;DHT22;11982;50.810;4.442;2023-04-23T09:44:11;17.50;99.90
23609;DHT22;11982;50.810;4.442;2023-04-23T09:46:40;17.40;99.90
23609;DHT22;11982;50.810;4.442;2023-04-23T09:49:07;17.50;99.90
23609;DHT22;11982;50.810;4.442;2023-04-23T09:51:41;17.60;99.90
23609;DHT22;11982;50.810;4.442;2023-04-23T09:56:36;17.20;99.90
23609;DHT22;11982;50.810;4.442;2023-04-23T09:59:37;16.90;99.90
23609;DHT22;11982;50.810;4.442;2023-04-23T10:02:01;16.80;99.90
23609;DHT22;11982;50.810;4.442;2023-04-23T10:04:27;16.80;99.90
23609;DHT22;11982;50.810;4.442;2023-04-23T10:06:54;16.80;99.90
23609;DHT22;11982;50.810;4.442;2023-04-23T10:09:21;16.90;99.90
23609;DHT22;11982;50.810;4.442;2023-04-23T10:11:56;16.60;99.90
23609;DHT22;11982;50.810;4.442;2023-04-23T10:14:24;16.30;99.90
23609;DHT22;11982;50.810;4.442;2023-04-23T10:16:51;16.40;99.90
23609;DHT22;11982;50.810;4.442;2023-04-23T10:19:20;16.80;99.90
23609;DHT22;11982;50.810;4.442;2023-04-23T10:21:52;16.90;99.90
23609;DHT22;11982;50.810;4.442;2023-04-23T10:24:22;16.90;99.90
23609;DHT22;11982;50.810;4.442;2023-04-23T10:26:49;16.80;99.90
23609;DHT22;11982;50.810;4.442;2023-04-23T10:29:16;16.90;99.90
23609;DHT22;11982;50.810;4.442;2023-04-23T10:31:45;16.80;99.90
23609;DHT22;11982;50.810;4.442;2023-04-23T10:34:12;16.90;99.90
23609;DHT22;11982;50.810;4.442;2023-04-23T10:36:37;16.60;99.90
23609;DHT22;11982;50.810;4.442;2023-04-23T10:39:04;16.60;99.90
23609;DHT22;11982;50.810;4.442;2023-04-23T10:41:40;16.60;99.90
23609;DHT22;11982;50.810;4.442;2023-04-23T10:44:11;16.70;99.90
23609;DHT22;11982;50.810;4.442;2023-04-23T10:46:38;17.00;99.90
23609;DHT22;11982;50.810;4.442;2023-04-23T10:49:14;16.90;99.90
23609;DHT22;11982;50.810;4.442;2023-04-23T10:52:03;17.00;99.90
23609;DHT22;11982;50.810;4.442;2023-04-23T10:54:28;17.00;99.90
23609;DHT22;11982;50.810;4.442;2023-04-23T10:57:03;17.60;99.90
23609;DHT22;11982;50.810;4.442;2023-04-23T10:59:30;17.70;99.90
23609;DHT22;11982;50.810;4.442;2023-04-23T11:01:57;17.40;99.90
23609;DHT22;11982;50.810;4.442;2023-04-23T11:04:27;17.50;99.90
23609;DHT22;11982;50.810;4.442;2023-04-23T11:07:03;18.10;99.90
23609;DHT22;11982;50.810;4.442;2023-04-23T11:11:57;18.30;99.90
23609;DHT22;11982;50.810;4.442;2023-04-23T11:17:01;16.90;99.90
23609;DHT22;11982;50.810;4.442;2023-04-23T11:19:26;16.70;99.90
23609;DHT22;11982;50.810;4.442;2023-04-23T11:22:16;16.90;99.90
23609;DHT22;11982;50.810;4.442;2023-04-23T11:24:44;17.00;99.90
23609;DHT22;11982;50.810;4.442;2023-04-23T11:27:12;16.90;99.90
23609;DHT22;11982;50.810;4.442;2023-04-23T11:29:39;16.90;99.90
23609;DHT22;11982;50.810;4.442;2023-04-23T11:32:06;17.10;99.90
23609;DHT22;11982;50.810;4.442;2023-04-23T11:34:36;17.10;99.90
23609;DHT22;11982;50.810;4.442;2023-04-23T11:37:02;16.80;99.90
23609;DHT22;11982;50.810;4.442;2023-04-23T11:39:29;17.40;99.90
23609;DHT22;11982;50.810;4.442;2023-04-23T11:41:55;17.60;99.90
23609;DHT22;11982;50.810;4.442;2023-04-23T11:44:22;17.00;99.90
23609;DHT22;11982;50.810;4.442;2023-04-23T11:46:49;16.60;99.90
23609;DHT22;11982;50.810;4.442;2023-04-23T11:49:16;16.50;99.90
23609;DHT22;11982;50.810;4.442;2023-04-23T11:51:43;16.50;99.90
23609;DHT22;11982;50.810;4.442;2023-04-23T11:54:10;15.90;99.90
23609;DHT22;11982;50.810;4.442;2023-04-23T11:56:38;15.50;99.90
23609;DHT22;11982;50.810;4.442;2023-04-23T11:59:04;14.70;99.90
23609;DHT22;11982;50.810;4.442;2023-04-23T12:04:14;14.00;99.90
23609;DHT22;11982;50.810;4.442;2023-04-23T12:06:42;13.60;99.90
23609;DHT22;11982;50.810;4.442;2023-04-23T12:09:08;13.50;99.90
23609;DHT22;11982;50.810;4.442;2023-04-23T12:11:36;13.50;99.90
23609;DHT22;11982;50.810;4.442;2023-04-23T12:14:01;13.40;99.90
23609;DHT22;11982;50.810;4.442;2023-04-23T12:16:41;13.40;99.90
23609;DHT22;11982;50.810;4.442;2023-04-23T12:19:19;13.40;99.90
23609;DHT22;11982;50.810;4.442;2023-04-23T12:21:53;13.40;99.90
23609;DHT22;11982;50.810;4.442;2023-04-23T12:24:24;13.40;99.90
23609;DHT22;11982;50.810;4.442;2023-04-23T12:26:58;13.40;99.90
23609;DHT22;11982;50.810;4.442;2023-04-23T12:29:25;13.10;99.90
23609;DHT22;11982;50.810;4.442;2023-04-23T12:31:57;13.00;99.90
23609;DHT22;11982;50.810;4.442;2023-04-23T12:34:23;13.00;99.90
23609;DHT22;11982;50.810;4.442;2023-04-23T12:36:51;13.00;99.90
23609;DHT22;11982;50.810;4.442;2023-04-23T12:39:30;12.90;99.90
23609;DHT22;11982;50.810;4.442;2023-04-23T12:42:06;13.20;99.90
23609;DHT22;11982;50.810;4.442;2023-04-23T12:44:37;13.00;99.90
23609;DHT22;11982;50.810;4.442;2023-04-23T12:47:05;13.00;99.90
23609;DHT22;11982;50.810;4.442;2023-04-23T12:49:33;12.90;99.90
23609;DHT22;11982;50.810;4.442;2023-04-23T12:52:00;12.90;99.90
23609;DHT22;11982;50.810;4.442;2023-04-23T12:54:31;13.10;99.90
23609;DHT22;11982;50.810;4.442;2023-04-23T12:56:59;13.20;99.90
23609;DHT22;11982;50.810;4.442;2023-04-23T12:59:27;13.20;99.90
23609;DHT22;11982;50.810;4.442;2023-04-23T13:01:53;13.30;99.90
23609;DHT22;11982;50.810;4.442;2023-04-23T13:04:19;13.50;99.90
23609;DHT22;11982;50.810;4.442;2023-04-23T13:06:45;13.60;99.90
23609;DHT22;11982;50.810;4.442;2023-04-23T13:09:11;13.60;99.90
23609;DHT22;11982;50.810;4.442;2023-04-23T13:11:38;13.80;99.90
23609;DHT22;11982;50.810;4.442;2023-04-23T13:14:04;13.80;99.90
23609;DHT22;11982;50.810;4.442;2023-04-23T13:16:30;13.90;99.90
23609;DHT22;11982;50.810;4.442;2023-04-23T13:18:58;14.10;99.90
23609;DHT22;11982;50.810;4.442;2023-04-23T13:21:24;14.10;99.90
23609;DHT22;11982;50.810;4.442;2023-04-23T13:23:50;14.20;99.90
23609;DHT22;11982;50.810;4.442;2023-04-23T13:26:16;14.00;99.90
23609;DHT22;11982;50.810;4.442;2023-04-23T13:28:42;13.90;99.90
23609;DHT22;11982;50.810;4.442;2023-04-23T13:31:08;13.70;99.90
23609;DHT22;11982;50.810;4.442;2023-04-23T13:33:36;13.70;99.90
23609;DHT22;11982;50.810;4.442;2023-04-23T13:36:02;13.50;99.90
23609;DHT22;11982;50.810;4.442;2023-04-23T13:38:28;13.50;99.90
23609;DHT22;11982;50.810;4.442;2023-04-23T13:40:54;13.70;99.90
23609;DHT22;11982;50.810;4.442;2023-04-23T13:43:20;13.80;99.90
23609;DHT22;11982;50.810;4.442;2023-04-23T13:45:46;13.90;99.90
23609;DHT22;11982;50.810;4.442;2023-04-23T13:48:13;13.90;99.90
23609;DHT22;11982;50.810;4.442;2023-04-23T13:50:39;13.90;99.90
23609;DHT22;11982;50.810;4.442;2023-04-23T13:53:05;13.80;99.90
23609;DHT22;11982;50.810;4.442;2023-04-23T13:55:31;13.70;99.90
23609;DHT22;11982;50.810;4.442;2023-04-23T13:57:57;13.50;99.90
23609;DHT22;11982;50.810;4.442;2023-04-23T14:00:27;13.60;99.90
23609;DHT22;11982;50.810;4.442;2023-04-23T14:02:53;13.40;99.90
23609;DHT22;11982;50.810;4.442;2023-04-23T14:05:19;13.40;99.90
23609;DHT22;11982;50.810;4.442;2023-04-23T14:07:45;13.50;99.90
23609;DHT22;11982;50.810;4.442;2023-04-23T14:10:11;13.50;99.90
23609;DHT22;11982;50.810;4.442;2023-04-23T14:12:37;13.60;99.90
23609;DHT22;11982;50.810;4.442;2023-04-23T14:15:07;13.70;99.90
23609;DHT22;11982;50.810;4.442;2023-04-23T14:17:34;13.80;99.90
23609;DHT22;11982;50.810;4.442;2023-04-23T14:19:59;13.70;99.90
23609;DHT22;11982;50.810;4.442;2023-04-23T14:22:25;13.80;99.90
23609;DHT22;11982;50.810;4.442;2023-04-23T14:24:56;13.90;99.90
23609;DHT22;11982;50.810;4.442;2023-04-23T14:27:25;14.10;99.90
23609;DHT22;11982;50.810;4.442;2023-04-23T14:29:57;14.30;99.90
23609;DHT22;11982;50.810;4.442;2023-04-23T14:32:26;14.60;99.90
23609;DHT22;11982;50.810;4.442;2023-04-23T14:34:52;15.00;99.90
23609;DHT22;11982;50.810;4.442;2023-04-23T14:37:17;15.40;99.90
23609;DHT22;11982;50.810;4.442;2023-04-23T14:39:43;15.80;99.90
23609;DHT22;11982;50.810;4.442;2023-04-23T14:42:11;15.60;99.90
23609;DHT22;11982;50.810;4.442;2023-04-23T14:44:36;15.60;99.90
23609;DHT22;11982;50.810;4.442;2023-04-23T14:47:02;15.70;99.90
23609;DHT22;11982;50.810;4.442;2023-04-23T14:49:28;15.70;99.90
23609;DHT22;11982;50.810;4.442;2023-04-23T14:51:54;15.60;99.90
23609;DHT22;11982;50.810;4.442;2023-04-23T14:54:21;15.60;99.90
23609;DHT22;11982;50.810;4.442;2023-04-23T14:56:47;15.80;99.90
23609;DHT22;11982;50.810;4.442;2023-04-23T14:59:13;15.60;99.90
23609;DHT22;11982;50.810;4.442;2023-04-23T15:01:38;15.60;99.90
23609;DHT22;11982;50.810;4.442;2023-04-23T15:04:04;15.50;99.90
23609;DHT22;11982;50.810;4.442;2023-04-23T15:06:30;15.60;99.90
23609;DHT22;11982;50.810;4.442;2023-04-23T15:08:56;15.70;99.90
23609;DHT22;11982;50.810;4.442;2023-04-23T15:11:22;15.50;99.90
23609;DHT22;11982;50.810;4.442;2023-04-23T15:16:38;15.70;99.90
23609;DHT22;11982;50.810;4.442;2023-04-23T15:19:05;15.70;99.90
23609;DHT22;11982;50.810;4.442;2023-04-23T15:21:31;15.60;99.90
23609;DHT22;11982;50.810;4.442;2023-04-23T15:23:57;15.60;99.90
23609;DHT22;11982;50.810;4.442;2023-04-23T15:26:24;15.60;99.90
23609;DHT22;11982;50.810;4.442;2023-04-23T15:28:50;15.80;99.90
23609;DHT22;11982;50.810;4.442;2023-04-23T15:31:16;15.70;99.90
23609;DHT22;11982;50.810;4.442;2023-04-23T15:33:42;15.60;99.90
23609;DHT22;11982;50.810;4.442;2023-04-23T15:36:08;15.50;99.90
23609;DHT22;11982;50.810;4.442;2023-04-23T15:38:35;15.40;99.90
23609;DHT22;11982;50.810;4.442;2023-04-23T15:41:00;15.10;99.90
23609;DHT22;11982;50.810;4.442;2023-04-23T15:43:26;15.00;99.90
23609;DHT22;11982;50.810;4.442;2023-04-23T15:45:52;14.60;99.90
23609;DHT22;11982;50.810;4.442;2023-04-23T15:48:19;14.40;99.90
23609;DHT22;11982;50.810;4.442;2023-04-23T15:50:46;14.20;99.90